Česky Dansk Deutsch English Español Suomi Français Magyar Italiano Nederlands norsk Polski Português svenska Türkçe

 

Het Weer

San Fernando, BA (Argentinië)

02:00, 2 augustus 2016 (GMT)

NWNNE
WE
SWSSE
Home            
San Fernando, BA Don Torcuato Aerodrome El Palomar Aerodrome Buenos Aires Observatorio Aeroparque Bs. As. Aerodrome Ezeiza Aerodrome Colonia La Plata Aerodrome Mercedes Gualeguaychu Aerodrome Junin Aerodrome Melilla Dolores Aerodrome Durazno Carrasco Paysandu Rosario Aerodrome Azul Airport Villaguay Aerodrome Tandil Aerodrome Capitan Corbeta Pehuajo Aerodrome Villa Gesell

Om een weerknop op uw website of weblog te plaatsen, copieer onderstaande code en plak die in uw pagina. In het eerste vakje staat HTML-code, in het tweede vakje UBB-code.


Add to Google

Details

Visibility:Greater than 10000 m, 10 km, 32800 ft, 6.2 miles
Clouds:CAVOC
Temperature:7°C, 45°F
Dew-point:6°C, 43°F
Atmospheric pressure:1028 hPa, 771.1 mmHg, 30.36 inHg, 1.015 atm
Relative humidity:93.3 %
METAR:SADF 020200Z 00000KT CAVOK 07/06 Q1028

Snelkoppelingen

Actuele weersinformatie van de hele wereld. Voeg locaties toe met het plus (+) symbool. Deze snelkoppelingen kunnen worden toegevoegd aan Google.

Lid van de Technetium groep

website free tracking
StatCounter NetStat W3C Validator

15-10-2019 05:55:06
astro.technetium.be money.technetium.be phote.technetium.be tafeltennistafel.technetium.be www.ligfiets.net